Latest Weather Observations for Brisbane

IDQ60801

Issued at 7:32 pm EST Monday 25 May 2015 (issued every 30 minutes, with the page automatically refreshed every 10 minutes)

About weather observations | Map of weather stations | Latest weather observations for QLD | Other Formats
Station Details ID: 040913 Name: BRISBANE Lat: -27.48 Lon: 153.04 Height: 8.13 m
Data from the previous 72 hours. | See also: Recent months at Brisbane
Date/Time
EST
Temp
°C
App
Temp
°C
Dew
Point
Rel
Hum
%
Delta-T
°C
Wind Press
QNH
hPa
Press
MSL
hPa
Rain
since 9 am
mm
Dir
 
Spd
km/h
Gust
km/h
Spd
kts
Gust
kts
25/07:30pm 16.8 17.7 12.9 78 2.2 CALM 0 2 0 1 1029.1 1029.1 0.0
25/07:00pm 16.8 17.7 12.9 78 2.2 CALM 0 0 0 0 1028.6 1028.6 0.0
25/06:30pm 16.8 17.6 12.5 76 2.4 CALM 0 4 0 2 1028.6 1028.6 0.0
25/06:00pm 17.5 17.7 12.0 70 3.0 ESE 2 6 1 3 1028.4 1028.4 0.0
25/05:30pm 18.9 18.9 12.4 66 3.6 ESE 4 6 2 3 1028.3 1028.3 0.0
25/05:00pm 19.9 19.5 12.4 62 4.2 ESE 6 9 3 5 1028.5 1028.5 0.0
25/04:30pm 20.3 19.6 11.5 57 4.9 ESE 6 9 3 5 1028.4 1028.4 0.0
25/04:00pm 20.5 19.7 10.9 54 5.2 SE 6 9 3 5 1027.9 1027.9 0.0
25/03:30pm 21.4 19.2 10.9 51 5.8 E 13 19 7 10 1027.7 1027.7 0.0
25/03:00pm 22.2 20.4 11.0 49 6.2 ESE 11 19 6 10 1027.6 1027.6 0.0
25/02:30pm 21.4 20.4 11.1 52 5.7 ESE 7 15 4 8 1027.6 1027.6 0.0
25/02:00pm 22.2 20.9 12.5 54 5.5 E 11 17 6 9 1027.6 1027.6 0.0
25/01:30pm 22.1 21.7 12.4 54 5.5 E 6 15 3 8 1028.0 1028.0 0.0
25/01:00pm 21.4 20.3 12.0 55 5.2 SE 9 19 5 10 1028.2 1028.2 0.0
25/12:30pm 23.3 22.9 12.9 52 6.0 E 7 15 4 8 1028.6 1028.6 0.0
25/12:00pm 22.2 22.0 13.5 57 5.0 ESE 7 13 4 7 1029.2 1029.2 0.0
25/11:30am 21.5 21.1 12.9 58 4.9 ESE 7 15 4 8 1029.8 1029.8 0.0
25/11:00am 22.0 21.6 13.1 57 5.1 SE 7 17 4 9 1030.2 1030.2 0.0
25/10:30am 21.6 21.6 13.5 60 4.6 S 6 13 3 7 1030.8 1030.8 0.0
25/10:00am 20.9 21.3 13.8 64 4.1 SSW 4 11 2 6 1030.9 1030.9 0.0
25/09:30am 19.1 19.2 12.8 67 3.5 WSW 4 9 2 5 1031.0 1031.0 0.0
25/09:00am 18.3 18.3 12.5 69 3.2 SW 4 9 2 5 1030.9 1030.9 0.0
25/08:30am 17.3 16.8 12.2 72 2.8 SSW 6 11 3 6 1030.7 1030.7 0.0
25/08:00am 15.8 15.5 11.4 75 2.3 SSW 4 9 2 5 1030.1 1030.1 0.0
25/07:30am 14.8 14.2 11.6 81 1.7 SW 6 9 3 5 1030.1 1030.1 0.0
25/07:00am 13.3 13.0 11.5 89 0.9 SW 4 6 2 3 1030.2 1030.2 0.0
25/06:30am 13.0 13.0 11.2 89 0.9 WSW 2 6 1 3 1030.1 1030.1 0.0
25/06:00am 13.4 13.1 11.5 88 1.0 WSW 4 6 2 3 1030.0 1030.0 0.0
25/05:30am 13.4 13.1 11.3 87 1.1 SW 4 7 2 4 1029.8 1029.8 0.0
25/05:00am 13.4 13.4 11.1 86 1.2 SW 2 6 1 3 1029.7 1029.7 0.0
25/04:30am 13.6 13.6 11.1 85 1.3 WSW 2 6 1 3 1029.5 1029.5 0.0
25/04:00am 13.7 13.7 11.2 85 1.3 WSW 2 6 1 3 1029.3 1029.3 0.0
25/03:30am 14.1 13.5 11.6 85 1.3 WSW 6 9 3 5 1029.3 1029.3 0.0
25/03:00am 14.3 13.7 11.6 84 1.4 WSW 6 9 3 5 1029.6 1029.6 0.0
25/02:30am 14.6 14.4 11.7 83 1.6 WSW 4 7 2 4 1029.5 1029.5 0.0
25/02:00am 14.9 14.3 11.7 81 1.7 SW 6 9 3 5 1029.4 1029.4 0.0
25/01:30am 15.2 14.6 11.6 79 1.9 WSW 6 11 3 6 1029.5 1029.5 0.0
25/01:00am 15.7 15.5 11.7 77 2.1 SW 4 13 2 7 1029.3 1029.3 0.0
25/12:30am 15.6 15.3 11.6 77 2.2 SSW 4 9 2 5 1029.5 1029.5 0.0
25/12:00am 15.7 15.5 11.7 77 2.1 SW 4 9 2 5 1029.6 1029.6 0.0
 
Date/Time
EST
Temp
°C
App
Temp
°C
Dew
Point
Rel
Hum
%
Delta-T
°C
Wind Press
QNH
hPa
Press
MSL
hPa
Rain
since 9 am
mm
Dir
 
Spd
km/h
Gust
km/h
Spd
kts
Gust
kts
24/11:30pm 15.6 15.3 11.6 77 2.2 SW 4 7 2 4 1029.8 1029.8 0.0
24/11:00pm 15.7 15.0 11.5 76 2.2 SW 6 13 3 7 1030.1 1030.1 0.0
24/10:30pm 16.2 15.6 11.8 75 2.4 SW 6 9 3 5 1030.2 1030.2 0.0
24/10:00pm 16.3 16.2 12.1 76 2.3 SW 4 9 2 5 1030.4 1030.4 0.0
24/09:30pm 16.8 16.6 11.9 73 2.7 SW 4 7 2 4 1030.1 1030.1 0.0
24/09:00pm 17.3 17.0 11.3 68 3.2 SSW 4 6 2 3 1029.8 1029.8 0.0
24/08:30pm 18.4 17.5 11.2 63 3.9 S 7 13 4 7 1029.8 1029.8 0.0
24/08:00pm 18.7 17.8 11.3 62 4.0 SE 7 13 4 7 1029.7 1029.7 0.0
24/07:30pm 19.2 18.6 11.7 62 4.1 SE 6 9 3 5 1029.4 1029.4 0.0
24/07:00pm 19.4 18.9 11.9 62 4.1 SE 6 11 3 6 1029.0 1029.0 0.0
24/06:30pm 19.6 19.1 11.9 61 4.3 SE 6 9 3 5 1028.8 1028.8 0.0
24/06:00pm 19.6 19.1 11.9 61 4.2 E 6 9 3 5 1028.7 1028.7 0.0
24/05:30pm 19.7 18.5 11.5 59 4.5 ESE 9 20 5 11 1028.4 1028.4 0.0
24/05:00pm 19.9 18.8 11.9 60 4.4 ESE 9 17 5 9 1028.0 1028.0 0.0
24/04:30pm 20.7 19.5 11.6 56 5.0 ESE 9 20 5 11 1027.6 1027.6 0.0
24/04:00pm 21.6 20.4 11.6 53 5.5 SE 9 17 5 9 1027.5 1027.5 0.0
24/03:30pm 22.3 21.2 12.0 52 5.8 ESE 9 19 5 10 1026.9 1026.9 0.0
24/03:00pm 22.3 21.3 12.3 53 5.6 ESE 9 17 5 9 1026.7 1026.7 0.0
24/02:30pm 23.0 22.0 12.3 51 6.1 ESE 9 19 5 10 1026.8 1026.8 0.0
24/02:00pm 22.9 21.5 12.2 51 6.0 ESE 11 22 6 12 1026.8 1026.8 0.0
24/01:30pm 22.7 21.4 11.4 49 6.3 ESE 9 19 5 10 1026.7 1026.7 0.0
24/01:00pm 23.4 21.7 11.1 46 6.8 ESE 11 22 6 12 1026.6 1026.6 0.0
24/12:30pm 22.5 21.1 10.9 48 6.4 SSE 9 17 5 9 1026.7 1026.7 0.0
24/12:00pm 22.2 21.2 11.0 49 6.2 SSE 7 22 4 12 1027.4 1027.4 0.0
24/11:30am 22.1 20.9 11.5 51 5.9 SSE 9 19 5 10 1028.0 1028.0 0.0
24/11:00am 21.8 20.6 11.5 52 5.7 SSE 9 17 5 9 1028.1 1028.1 0.0
24/10:30am 21.4 20.2 11.7 54 5.4 S 9 20 5 11 1028.4 1028.4 0.0
24/10:00am 20.6 20.0 12.3 59 4.6 SSW 7 13 4 7 1028.6 1028.6 0.0
24/09:30am 19.8 19.1 12.1 61 4.3 S 7 15 4 8 1028.8 1028.8 0.0
24/09:00am 18.3 17.5 11.6 65 3.6 SSW 7 15 4 8 1028.4 1028.4 0.0
24/08:30am 17.2 16.2 11.0 67 3.3 SSW 7 15 4 8 1028.5 1028.5 0.0
24/08:00am 16.1 15.3 11.1 72 2.7 SW 6 13 3 7 1028.5 1028.5 0.0
24/07:30am 15.6 15.2 11.2 75 2.4 SSW 4 9 2 5 1028.2 1028.2 0.0
24/07:00am 14.3 13.6 11.3 82 1.6 WSW 6 11 3 6 1027.9 1027.9 0.0
24/06:30am 13.8 13.0 11.1 84 1.4 WSW 6 9 3 5 1027.0 1027.0 0.0
24/06:00am 13.9 13.1 11.2 84 1.4 WSW 6 11 3 6 1026.7 1026.7 0.0
24/05:30am 13.9 13.5 11.2 84 1.4 WSW 4 7 2 4 1026.3 1026.3 0.0
24/05:00am 14.0 13.6 11.0 82 1.6 WSW 4 9 2 5 1026.1 1026.1 0.0
24/04:30am 14.5 13.8 11.5 82 1.6 WSW 6 13 3 7 1025.9 1025.9 0.0
24/04:00am 14.5 13.9 11.7 83 1.5 WSW 6 11 3 6 1025.7 1025.7 0.0
24/03:30am 15.1 14.6 11.9 81 1.7 SW 6 15 3 8 1025.8 1025.8 0.0
24/03:00am 15.7 15.0 12.1 79 2.0 SW 7 17 4 9 1026.0 1026.0 0.0
24/02:30am 15.6 15.1 12.0 79 2.0 S 6 13 3 7 1026.3 1026.3 0.0
24/02:00am 15.2 14.9 11.4 78 2.0 SW 4 11 2 6 1026.1 1026.1 0.0
24/01:30am 15.1 14.3 11.1 77 2.1 SW 6 13 3 7 1026.0 1026.0 0.0
24/01:00am 15.6 15.3 11.4 76 2.2 SW 4 9 2 5 1025.9 1025.9 0.0
24/12:30am 15.5 14.7 11.1 75 2.3 S 6 9 3 5 1025.9 1025.9 0.0
24/12:00am 15.3 14.3 10.9 75 2.3 SSW 7 13 4 7 1025.8 1025.8 0.0
 
Date/Time
EST
Temp
°C
App
Temp
°C
Dew
Point
Rel
Hum
%
Delta-T
°C
Wind Press
QNH
hPa
Press
MSL
hPa
Rain
since 9 am
mm
Dir
 
Spd
km/h
Gust
km/h
Spd
kts
Gust
kts
23/11:30pm 14.6 13.7 10.8 78 2.0 SW 6 11 3 6 1025.9 1025.9 0.0
23/11:00pm 14.3 13.3 10.9 80 1.8 WSW 7 11 4 6 1026.0 1026.0 0.0
23/10:30pm 14.1 13.9 10.3 78 2.0 SSW 2 6 1 3 1025.9 1025.9 0.0
23/10:00pm 14.7 14.2 10.7 77 2.1 WSW 4 7 2 4 1025.8 1025.8 0.0
23/09:30pm 15.0 14.3 10.2 73 2.5 SW 4 6 2 3 1025.8 1025.8 0.0
23/09:00pm 15.3 14.6 10.1 71 2.7 WSW 4 9 2 5 1025.9 1025.9 0.0
23/08:30pm 15.4 14.6 9.5 68 3.0 SW 4 9 2 5 1026.0 1026.0 0.0
23/08:00pm 15.8 15.0 9.5 66 3.2 WSW 4 6 2 3 1025.8 1025.8 0.0
23/07:30pm 16.0 15.3 8.5 61 3.8 SSW 2 4 1 2 1025.7 1025.7 0.0
23/07:00pm 17.1 16.0 8.5 57 4.4 SSE 4 7 2 4 1025.6 1025.6 0.0
23/06:30pm 17.6 16.5 8.5 55 4.7 SSE 4 7 2 4 1025.0 1025.0 0.0
23/06:00pm 18.4 17.0 8.7 53 5.0 S 6 11 3 6 1024.6 1024.6 0.0
23/05:30pm 19.2 17.8 8.8 51 5.4 SSE 6 13 3 7 1024.7 1024.7 0.0
23/05:00pm 19.4 18.2 9.6 53 5.2 S 6 9 3 5 1024.5 1024.5 0.0
23/04:30pm 19.9 18.4 9.2 50 5.7 SSE 7 13 4 7 1023.9 1023.9 0.0
23/04:00pm 21.2 19.2 10.1 49 6.0 SSE 11 22 6 12 1023.5 1023.5 0.0
23/03:30pm 20.9 18.9 10.1 50 5.8 SSE 11 20 6 11 1023.3 1023.3 0.0
23/03:00pm 21.5 18.7 8.4 43 6.9 SE 13 26 7 14 1023.0 1023.0 0.0
23/02:30pm 22.3 20.1 9.5 44 6.9 S 11 22 6 12 1023.0 1023.0 0.0
23/02:00pm 22.1 19.5 9.3 44 6.8 SSE 13 24 7 13 1022.9 1022.9 0.0
23/01:30pm 21.9 18.1 9.1 44 6.8 SE 19 32 10 17 1022.9 1022.9 0.0
23/01:00pm 22.0 19.8 9.5 45 6.7 SE 11 26 6 14 1022.8 1022.8 0.0
23/12:30pm 22.4 18.9 8.9 42 7.2 SE 17 32 9 17 1022.8 1022.8 0.0
23/12:00pm 22.3 20.0 9.1 43 7.0 SSE 11 20 6 11 1023.2 1023.2 0.0
23/11:30am 21.4 20.1 9.9 48 6.2 SW 7 17 4 9 1023.4 1023.4 0.0
23/11:00am 22.1 19.4 10.3 47 6.4 S 15 32 8 17 1023.7 1023.7 0.0
23/10:30am 20.9 18.3 9.5 48 6.1 SSW 13 26 7 14 1023.8 1023.8 0.0
23/10:00am 20.4 18.8 10.2 52 5.5 SSW 9 20 5 11 1023.5 1023.5 0.0
23/09:30am 19.6 18.0 10.3 55 5.0 SSW 9 22 5 12 1023.4 1023.4 0.0
23/09:00am 18.7 17.0 9.8 56 4.7 SW 9 19 5 10 1023.2 1023.2 0.0
23/08:30am 17.6 15.7 9.2 58 4.4 SW 9 19 5 10 1022.9 1022.9 0.0
23/08:00am 16.7 15.3 9.6 63 3.7 SW 7 15 4 8 1022.6 1022.6 0.0
23/07:30am 15.9 14.8 9.8 67 3.2 WSW 6 11 3 6 1022.2 1022.2 0.0
23/07:00am 14.9 13.6 9.3 69 2.9 WSW 6 11 3 6 1021.9 1021.9 0.0
23/06:30am 14.6 13.7 9.4 71 2.7 WSW 4 9 2 5 1021.4 1021.4 0.0
23/06:00am 14.2 12.9 9.2 72 2.5 WSW 6 7 3 4 1021.0 1021.0 0.0
23/05:30am 14.4 13.0 9.0 70 2.7 WSW 6 11 3 6 1020.5 1020.5 0.0
23/05:00am 14.4 13.1 9.2 71 2.6 WSW 6 17 3 9 1020.2 1020.2 0.0
23/04:30am 14.6 13.2 9.4 71 2.7 WSW 7 15 4 8 1020.0 1020.0 0.0
23/04:00am 14.5 13.2 9.3 71 2.7 WSW 6 11 3 6 1019.9 1019.9 0.0
23/03:30am 14.8 13.6 9.6 71 2.7 WSW 6 11 3 6 1019.9 1019.9 0.0
23/03:00am 15.0 13.8 9.4 69 2.9 SW 6 11 3 6 1019.8 1019.8 0.0
23/02:30am 15.4 13.6 9.5 68 3.0 SW 9 17 5 9 1019.7 1019.7 0.0
23/02:00am 15.4 14.2 9.5 68 3.0 WSW 6 11 3 6 1019.7 1019.7 0.0
23/01:30am 15.3 14.1 9.4 68 3.0 WSW 6 11 3 6 1019.8 1019.8 0.0
23/01:00am 15.8 14.5 9.2 65 3.4 SW 6 9 3 5 1019.7 1019.7 0.0
23/12:30am 15.7 14.5 9.4 66 3.3 WSW 6 17 3 9 1019.7 1019.7 0.0
23/12:00am 14.9 13.4 9.3 69 2.9 W 7 15 4 8 1019.4 1019.4 0.0
 
Date/Time
EST
Temp
°C
App
Temp
°C
Dew
Point
Rel
Hum
%
Delta-T
°C
Wind Press
QNH
hPa
Press
MSL
hPa
Rain
since 9 am
mm
Dir
 
Spd
km/h
Gust
km/h
Spd
kts
Gust
kts
22/11:30pm 14.4 13.5 9.2 71 2.7 SW 4 7 2 4 1019.5 1019.5 0.0
22/11:00pm 14.5 13.2 9.1 70 2.7 WSW 6 9 3 5 1019.5 1019.5 0.0
22/10:30pm 15.0 13.5 9.1 68 3.0 WSW 7 17 4 9 1019.3 1019.3 0.0
22/10:00pm 14.9 13.3 8.8 67 3.1 W 7 13 4 7 1019.2 1019.2 0.0
22/09:30pm 15.3 13.3 8.8 65 3.3 WSW 9 19 5 10 1019.3 1019.3 0.0
22/09:00pm 15.3 13.3 8.5 64 3.4 W 9 20 5 11 1019.0 1019.0 0.0
22/08:30pm 15.3 13.7 8.8 65 3.3 W 7 15 4 8 1018.9 1018.9 0.0
22/08:00pm 15.4 13.8 8.6 64 3.4 W 7 15 4 8 1018.7 1018.7 0.0

Other Formats:

Comma delimited format used in spreadsheet applications
http://www.bom.gov.au/fwo/IDQ60801/IDQ60801.94576.axf

JavaScript Object Notation format (JSON) in row-major order
http://www.bom.gov.au/fwo/IDQ60801/IDQ60801.94576.json